SULAYMANIYAH INTERNATIONAL AIRPORT
  • SulyAir
  • SulyAir
1 1
Arrival

ArrivalsMore >>

Departure

DeparturesMore >>

TAF

TAF ORSU 2711700Z 2718/2818 29006KT CAVOK
BECMG 2807/2809 15008KT 9999 FEW040 BKN180=

METARs

METAR ORSU 271800Z 30003KT CAVOK 01/M04 Q1025=